sensor_id;sensor_type;location;lat;lon;timestamp;pressure;altitude;pressure_sealevel;temperature
19061;BMP280;9663;48.996;8.334;2023-07-31T00:00:33;100264.28;;;23.95
19061;BMP280;9663;48.996;8.334;2023-07-31T00:02:59;100271.41;;;23.92
19061;BMP280;9663;48.996;8.334;2023-07-31T00:05:25;100260.56;;;23.85
19061;BMP280;9663;48.996;8.334;2023-07-31T00:07:51;100260.19;;;23.77
19061;BMP280;9663;48.996;8.334;2023-07-31T00:10:16;100268.13;;;23.74
19061;BMP280;9663;48.996;8.334;2023-07-31T00:12:44;100261.44;;;23.70
19061;BMP280;9663;48.996;8.334;2023-07-31T00:15:10;100262.63;;;23.65
19061;BMP280;9663;48.996;8.334;2023-07-31T00:17:36;100252.50;;;23.60
19061;BMP280;9663;48.996;8.334;2023-07-31T00:20:03;100249.34;;;23.56
19061;BMP280;9663;48.996;8.334;2023-07-31T00:22:29;100258.19;;;23.52
19061;BMP280;9663;48.996;8.334;2023-07-31T00:24:56;100245.41;;;23.49
19061;BMP280;9663;48.996;8.334;2023-07-31T00:27:22;100241.34;;;23.45
19061;BMP280;9663;48.996;8.334;2023-07-31T00:29:48;100231.16;;;23.42
19061;BMP280;9663;48.996;8.334;2023-07-31T00:32:13;100231.16;;;23.42
19061;BMP280;9663;48.996;8.334;2023-07-31T00:34:39;100233.84;;;23.40
19061;BMP280;9663;48.996;8.334;2023-07-31T00:37:05;100241.59;;;23.40
19061;BMP280;9663;48.996;8.334;2023-07-31T00:39:33;100238.09;;;23.41
19061;BMP280;9663;48.996;8.334;2023-07-31T00:41:59;100233.75;;;23.42
19061;BMP280;9663;48.996;8.334;2023-07-31T00:44:24;100239.00;;;23.40
19061;BMP280;9663;48.996;8.334;2023-07-31T00:46:50;100236.50;;;23.39
19061;BMP280;9663;48.996;8.334;2023-07-31T00:49:16;100237.53;;;23.36
19061;BMP280;9663;48.996;8.334;2023-07-31T00:51:42;100223.00;;;23.34
19061;BMP280;9663;48.996;8.334;2023-07-31T00:54:07;100224.84;;;23.32
19061;BMP280;9663;48.996;8.334;2023-07-31T00:56:33;100217.16;;;23.30
19061;BMP280;9663;48.996;8.334;2023-07-31T00:58:59;100215.50;;;23.29
19061;BMP280;9663;48.996;8.334;2023-07-31T01:01:25;100220.75;;;23.28
19061;BMP280;9663;48.996;8.334;2023-07-31T01:03:52;100221.66;;;23.27
19061;BMP280;9663;48.996;8.334;2023-07-31T01:06:43;100223.84;;;23.19
19061;BMP280;9663;48.996;8.334;2023-07-31T01:09:45;100212.19;;;23.12
19061;BMP280;9663;48.996;8.334;2023-07-31T01:12:15;100222.28;;;23.17
19061;BMP280;9663;48.996;8.334;2023-07-31T01:15:08;100211.53;;;23.09
19061;BMP280;9663;48.996;8.334;2023-07-31T01:17:38;100211.53;;;23.09
19061;BMP280;9663;48.996;8.334;2023-07-31T01:20:11;100211.69;;;23.06
19061;BMP280;9663;48.996;8.334;2023-07-31T01:26:04;100212.72;;;22.86
19061;BMP280;9663;48.996;8.334;2023-07-31T01:31:26;100225.84;;;22.83
19061;BMP280;9663;48.996;8.334;2023-07-31T01:33:56;100217.50;;;22.78
19061;BMP280;9663;48.996;8.334;2023-07-31T01:36:23;100217.66;;;22.75
19061;BMP280;9663;48.996;8.334;2023-07-31T01:38:49;100205.06;;;22.70
19061;BMP280;9663;48.996;8.334;2023-07-31T01:41:18;100212.97;;;22.67
19061;BMP280;9663;48.996;8.334;2023-07-31T01:43:46;100207.13;;;22.63
19061;BMP280;9663;48.996;8.334;2023-07-31T01:46:11;100200.41;;;22.61
19061;BMP280;9663;48.996;8.334;2023-07-31T01:48:37;100194.50;;;22.59
19061;BMP280;9663;48.996;8.334;2023-07-31T01:51:03;100190.28;;;22.56
19061;BMP280;9663;48.996;8.334;2023-07-31T01:53:31;100190.38;;;22.55
19061;BMP280;9663;48.996;8.334;2023-07-31T01:55:56;100180.19;;;22.52
19061;BMP280;9663;48.996;8.334;2023-07-31T01:58:22;100183.72;;;22.51
19061;BMP280;9663;48.996;8.334;2023-07-31T02:00:48;100172.59;;;22.49
19061;BMP280;9663;48.996;8.334;2023-07-31T02:03:13;100180.34;;;22.49
19061;BMP280;9663;48.996;8.334;2023-07-31T02:05:47;100172.59;;;22.49
19061;BMP280;9663;48.996;8.334;2023-07-31T02:08:14;100176.03;;;22.49
19061;BMP280;9663;48.996;8.334;2023-07-31T02:10:40;100169.28;;;22.47
19061;BMP280;9663;48.996;8.334;2023-07-31T02:13:06;100172.78;;;22.46
19061;BMP280;9663;48.996;8.334;2023-07-31T02:15:33;100173.78;;;22.43
19061;BMP280;9663;48.996;8.334;2023-07-31T02:17:59;100169.78;;;22.38
19061;BMP280;9663;48.996;8.334;2023-07-31T02:20:24;100167.34;;;22.35
19061;BMP280;9663;48.996;8.334;2023-07-31T02:22:50;100160.59;;;22.32
19061;BMP280;9663;48.996;8.334;2023-07-31T02:25:16;100157.25;;;22.30
19061;BMP280;9663;48.996;8.334;2023-07-31T02:27:42;100154.59;;;22.32
19061;BMP280;9663;48.996;8.334;2023-07-31T02:30:08;100148.50;;;22.33
19061;BMP280;9663;48.996;8.334;2023-07-31T02:32:34;100148.44;;;22.34
19061;BMP280;9663;48.996;8.334;2023-07-31T02:35:00;100149.34;;;22.33
19061;BMP280;9663;48.996;8.334;2023-07-31T02:37:26;100150.16;;;22.34
19061;BMP280;9663;48.996;8.334;2023-07-31T02:39:51;100147.59;;;22.34
19061;BMP280;9663;48.996;8.334;2023-07-31T02:42:17;100147.59;;;22.34
19061;BMP280;9663;48.996;8.334;2023-07-31T02:44:42;100155.34;;;22.34
19061;BMP280;9663;48.996;8.334;2023-07-31T02:47:08;100149.25;;;22.35
19061;BMP280;9663;48.996;8.334;2023-07-31T02:49:34;100157.75;;;22.37
19061;BMP280;9663;48.996;8.334;2023-07-31T02:52:00;100162.94;;;22.37
19061;BMP280;9663;48.996;8.334;2023-07-31T02:54:25;100148.34;;;22.36
19061;BMP280;9663;48.996;8.334;2023-07-31T02:56:51;100154.28;;;22.38
19061;BMP280;9663;48.996;8.334;2023-07-31T02:59:17;100147.34;;;22.38
19061;BMP280;9663;48.996;8.334;2023-07-31T03:01:43;100153.19;;;22.42
19061;BMP280;9663;48.996;8.334;2023-07-31T03:04:09;100153.91;;;22.44
19061;BMP280;9663;48.996;8.334;2023-07-31T03:06:35;100148.59;;;22.47
19061;BMP280;9663;48.996;8.334;2023-07-31T03:09:00;100155.38;;;22.49
19061;BMP280;9663;48.996;8.334;2023-07-31T03:11:26;100152.88;;;22.48
19061;BMP280;9663;48.996;8.334;2023-07-31T03:13:52;100150.28;;;22.48
19061;BMP280;9663;48.996;8.334;2023-07-31T03:16:17;100157.00;;;22.50
19061;BMP280;9663;48.996;8.334;2023-07-31T03:18:43;100146.59;;;22.52
19061;BMP280;9663;48.996;8.334;2023-07-31T03:21:09;100143.84;;;22.55
19061;BMP280;9663;48.996;8.334;2023-07-31T03:23:34;100144.53;;;22.58
19061;BMP280;9663;48.996;8.334;2023-07-31T03:26:02;100141.03;;;22.59
19061;BMP280;9663;48.996;8.334;2023-07-31T03:28:29;100151.28;;;22.61
19061;BMP280;9663;48.996;8.334;2023-07-31T03:30:56;100148.69;;;22.61
19061;BMP280;9663;48.996;8.334;2023-07-31T03:33:21;100150.34;;;22.62
19061;BMP280;9663;48.996;8.334;2023-07-31T03:35:47;100149.59;;;22.60
19061;BMP280;9663;48.996;8.334;2023-07-31T03:38:13;100153.97;;;22.59
19061;BMP280;9663;48.996;8.334;2023-07-31T03:40:39;100153.88;;;22.61
19061;BMP280;9663;48.996;8.334;2023-07-31T03:43:05;100149.53;;;22.61
19061;BMP280;9663;48.996;8.334;2023-07-31T03:45:31;100145.19;;;22.62
19061;BMP280;9663;48.996;8.334;2023-07-31T03:47:57;100146.88;;;22.63
19061;BMP280;9663;48.996;8.334;2023-07-31T03:50:22;100146.78;;;22.64
19061;BMP280;9663;48.996;8.334;2023-07-31T03:52:50;100148.25;;;22.68
19061;BMP280;9663;48.996;8.334;2023-07-31T03:55:16;100142.13;;;22.71
19061;BMP280;9663;48.996;8.334;2023-07-31T03:57:42;100148.94;;;22.72
19061;BMP280;9663;48.996;8.334;2023-07-31T04:00:08;100145.44;;;22.73
19061;BMP280;9663;48.996;8.334;2023-07-31T04:02:34;100146.03;;;22.77
19061;BMP280;9663;48.996;8.334;2023-07-31T04:04:59;100140.84;;;22.77
19061;BMP280;9663;48.996;8.334;2023-07-31T04:07:25;100145.13;;;22.78
19061;BMP280;9663;48.996;8.334;2023-07-31T04:09:50;100145.94;;;22.79
19061;BMP280;9663;48.996;8.334;2023-07-31T04:12:16;100141.50;;;22.81
19061;BMP280;9663;48.996;8.334;2023-07-31T04:14:41;100141.44;;;22.82
19061;BMP280;9663;48.996;8.334;2023-07-31T04:17:07;100147.34;;;22.84
19061;BMP280;9663;48.996;8.334;2023-07-31T04:19:33;100145.50;;;22.86
19061;BMP280;9663;48.996;8.334;2023-07-31T04:21:58;100140.44;;;22.85
19061;BMP280;9663;48.996;8.334;2023-07-31T04:24:24;100147.19;;;22.87
19061;BMP280;9663;48.996;8.334;2023-07-31T04:26:53;100142.84;;;22.88
19061;BMP280;9663;48.996;8.334;2023-07-31T04:29:19;100150.59;;;22.88
19061;BMP280;9663;48.996;8.334;2023-07-31T04:31:45;100138.50;;;22.88
19061;BMP280;9663;48.996;8.334;2023-07-31T04:34:11;100141.84;;;22.90
19061;BMP280;9663;48.996;8.334;2023-07-31T04:36:37;100128.91;;;22.90
19061;BMP280;9663;48.996;8.334;2023-07-31T04:39:03;100122.00;;;22.91
19061;BMP280;9663;48.996;8.334;2023-07-31T04:41:29;100129.69;;;22.92
19061;BMP280;9663;48.996;8.334;2023-07-31T04:43:55;100129.69;;;22.92
19061;BMP280;9663;48.996;8.334;2023-07-31T04:46:20;100129.69;;;22.92
19061;BMP280;9663;48.996;8.334;2023-07-31T04:48:46;100132.19;;;22.94
19061;BMP280;9663;48.996;8.334;2023-07-31T04:51:12;100134.78;;;22.94
19061;BMP280;9663;48.996;8.334;2023-07-31T04:53:37;100126.19;;;22.93
19061;BMP280;9663;48.996;8.334;2023-07-31T04:56:03;100136.53;;;22.93
19061;BMP280;9663;48.996;8.334;2023-07-31T04:58:29;100131.28;;;22.95
19061;BMP280;9663;48.996;8.334;2023-07-31T05:00:54;100137.28;;;22.95
19061;BMP280;9663;48.996;8.334;2023-07-31T05:03:20;100127.69;;;22.97
19061;BMP280;9663;48.996;8.334;2023-07-31T05:05:46;100130.09;;;23.00
19061;BMP280;9663;48.996;8.334;2023-07-31T05:08:11;100119.66;;;23.02
19061;BMP280;9663;48.996;8.334;2023-07-31T05:10:37;100133.19;;;23.07
19061;BMP280;9663;48.996;8.334;2023-07-31T05:13:03;100124.22;;;23.12
19061;BMP280;9663;48.996;8.334;2023-07-31T05:15:29;100126.56;;;23.17
19061;BMP280;9663;48.996;8.334;2023-07-31T05:17:55;100128.97;;;23.19
19061;BMP280;9663;48.996;8.334;2023-07-31T05:20:21;100122.59;;;23.25
19061;BMP280;9663;48.996;8.334;2023-07-31T05:22:47;100131.75;;;23.30
19061;BMP280;9663;48.996;8.334;2023-07-31T05:25:13;100118.47;;;23.36
19061;BMP280;9663;48.996;8.334;2023-07-31T05:27:38;100117.13;;;23.45
19061;BMP280;9663;48.996;8.334;2023-07-31T05:30:05;100122.69;;;23.53
19061;BMP280;9663;48.996;8.334;2023-07-31T05:32:31;100115.31;;;23.60
19061;BMP280;9663;48.996;8.334;2023-07-31T05:34:57;100117.47;;;23.68
19061;BMP280;9663;48.996;8.334;2023-07-31T05:37:24;100112.47;;;23.79
19061;BMP280;9663;48.996;8.334;2023-07-31T05:39:49;100113.69;;;23.87
19061;BMP280;9663;48.996;8.334;2023-07-31T05:42:16;100118.28;;;23.96
19061;BMP280;9663;48.996;8.334;2023-07-31T05:44:41;100116.09;;;24.04
19061;BMP280;9663;48.996;8.334;2023-07-31T05:47:07;100118.22;;;24.11
19061;BMP280;9663;48.996;8.334;2023-07-31T05:49:33;100111.00;;;24.16
19061;BMP280;9663;48.996;8.334;2023-07-31T05:51:58;100114.06;;;24.23
19061;BMP280;9663;48.996;8.334;2023-07-31T05:54:24;100107.75;;;24.27
19061;BMP280;9663;48.996;8.334;2023-07-31T05:56:50;100103.38;;;24.27
19061;BMP280;9663;48.996;8.334;2023-07-31T05:59:16;100111.84;;;24.31
19061;BMP280;9663;48.996;8.334;2023-07-31T06:01:42;100112.41;;;24.36
19061;BMP280;9663;48.996;8.334;2023-07-31T06:04:07;100104.22;;;24.42
19061;BMP280;9663;48.996;8.334;2023-07-31T06:06:33;100101.16;;;24.49
19061;BMP280;9663;48.996;8.334;2023-07-31T06:08:59;100093.63;;;24.58
19061;BMP280;9663;48.996;8.334;2023-07-31T06:11:25;100098.78;;;24.72
19061;BMP280;9663;48.996;8.334;2023-07-31T06:13:51;100084.28;;;24.82
19061;BMP280;9663;48.996;8.334;2023-07-31T06:16:16;100102.78;;;24.90
19061;BMP280;9663;48.996;8.334;2023-07-31T06:18:42;100107.50;;;24.97
19061;BMP280;9663;48.996;8.334;2023-07-31T06:21:09;100105.34;;;25.04
19061;BMP280;9663;48.996;8.334;2023-07-31T06:23:36;100109.19;;;25.11
19061;BMP280;9663;48.996;8.334;2023-07-31T06:26:01;100113.06;;;25.18
19061;BMP280;9663;48.996;8.334;2023-07-31T06:28:28;100108.19;;;25.26
19061;BMP280;9663;48.996;8.334;2023-07-31T06:30:58;100105.94;;;25.33
19061;BMP280;9663;48.996;8.334;2023-07-31T06:33:24;100099.41;;;25.40
19061;BMP280;9663;48.996;8.334;2023-07-31T06:35:50;100101.38;;;25.49
19061;BMP280;9663;48.996;8.334;2023-07-31T06:38:21;100105.22;;;25.56
19061;BMP280;9663;48.996;8.334;2023-07-31T06:40:47;100105.59;;;25.64
19061;BMP280;9663;48.996;8.334;2023-07-31T06:43:12;100091.25;;;25.71
19061;BMP280;9663;48.996;8.334;2023-07-31T06:45:38;100094.25;;;25.77
19061;BMP280;9663;48.996;8.334;2023-07-31T06:48:04;100094.97;;;25.79
19061;BMP280;9663;48.996;8.334;2023-07-31T06:50:31;100094.75;;;25.82
19061;BMP280;9663;48.996;8.334;2023-07-31T06:52:57;100101.53;;;25.85
19061;BMP280;9663;48.996;8.334;2023-07-31T06:55:24;100097.25;;;25.84
19061;BMP280;9663;48.996;8.334;2023-07-31T06:57:52;100093.22;;;25.80
19061;BMP280;9663;48.996;8.334;2023-07-31T07:00:20;100107.34;;;25.76
19061;BMP280;9663;48.996;8.334;2023-07-31T07:02:46;100089.59;;;25.70
19061;BMP280;9663;48.996;8.334;2023-07-31T07:05:16;100090.72;;;25.66
19061;BMP280;9663;48.996;8.334;2023-07-31T07:07:43;100093.53;;;25.63
19061;BMP280;9663;48.996;8.334;2023-07-31T07:10:09;100083.03;;;25.65
19061;BMP280;9663;48.996;8.334;2023-07-31T07:12:35;100085.44;;;25.68
19061;BMP280;9663;48.996;8.334;2023-07-31T07:15:01;100075.56;;;25.73
19061;BMP280;9663;48.996;8.334;2023-07-31T07:17:29;100077.84;;;25.77
19061;BMP280;9663;48.996;8.334;2023-07-31T07:19:57;100074.94;;;25.81
19061;BMP280;9663;48.996;8.334;2023-07-31T07:22:23;100072.75;;;25.88
19061;BMP280;9663;48.996;8.334;2023-07-31T07:24:49;100078.97;;;25.98
19061;BMP280;9663;48.996;8.334;2023-07-31T07:27:15;100077.25;;;26.09
19061;BMP280;9663;48.996;8.334;2023-07-31T07:29:40;100082.66;;;26.19
19061;BMP280;9663;48.996;8.334;2023-07-31T07:32:06;100069.88;;;26.28
19061;BMP280;9663;48.996;8.334;2023-07-31T07:34:32;100063.91;;;26.38
19061;BMP280;9663;48.996;8.334;2023-07-31T07:36:58;100065.88;;;26.47
19061;BMP280;9663;48.996;8.334;2023-07-31T07:39:23;100062.38;;;26.59
19061;BMP280;9663;48.996;8.334;2023-07-31T07:41:50;100065.66;;;26.73
19061;BMP280;9663;48.996;8.334;2023-07-31T07:44:15;100059.66;;;26.84
19061;BMP280;9663;48.996;8.334;2023-07-31T07:46:42;100056.41;;;26.93
19061;BMP280;9663;48.996;8.334;2023-07-31T07:49:07;100051.69;;;26.98
19061;BMP280;9663;48.996;8.334;2023-07-31T07:51:33;100052.31;;;27.01
19061;BMP280;9663;48.996;8.334;2023-07-31T07:53:59;100053.63;;;27.07
19061;BMP280;9663;48.996;8.334;2023-07-31T07:56:26;100058.50;;;27.11
19061;BMP280;9663;48.996;8.334;2023-07-31T07:58:53;100063.47;;;27.14
19061;BMP280;9663;48.996;8.334;2023-07-31T08:01:19;100068.44;;;27.17
19061;BMP280;9663;48.996;8.334;2023-07-31T08:03:44;100056.63;;;27.24
19061;BMP280;9663;48.996;8.334;2023-07-31T08:06:10;100059.59;;;27.30
19061;BMP280;9663;48.996;8.334;2023-07-31T08:08:37;100063.66;;;27.34
19061;BMP280;9663;48.996;8.334;2023-07-31T08:11:03;100066.84;;;27.38
19061;BMP280;9663;48.996;8.334;2023-07-31T08:13:29;100058.81;;;27.41
19061;BMP280;9663;48.996;8.334;2023-07-31T08:15:55;100064.31;;;27.49
19061;BMP280;9663;48.996;8.334;2023-07-31T08:18:21;100057.34;;;27.60
19061;BMP280;9663;48.996;8.334;2023-07-31T08:20:47;100053.78;;;27.72
19061;BMP280;9663;48.996;8.334;2023-07-31T08:23:13;100049.41;;;27.83
19061;BMP280;9663;48.996;8.334;2023-07-31T08:25:39;100042.75;;;27.90
19061;BMP280;9663;48.996;8.334;2023-07-31T08:28:05;100046.44;;;27.98
19061;BMP280;9663;48.996;8.334;2023-07-31T08:30:32;100051.91;;;28.06
19061;BMP280;9663;48.996;8.334;2023-07-31T08:32:59;100037.31;;;28.15
19061;BMP280;9663;48.996;8.334;2023-07-31T08:35:26;100045.72;;;28.18
19061;BMP280;9663;48.996;8.334;2023-07-31T08:37:53;100038.72;;;28.19
19061;BMP280;9663;48.996;8.334;2023-07-31T08:40:19;100024.75;;;28.20
19061;BMP280;9663;48.996;8.334;2023-07-31T08:42:47;100024.84;;;28.29
19061;BMP280;9663;48.996;8.334;2023-07-31T08:45:19;100027.41;;;28.40
19061;BMP280;9663;48.996;8.334;2023-07-31T08:47:52;100019.19;;;28.55
19061;BMP280;9663;48.996;8.334;2023-07-31T08:50:20;100015.94;;;28.74
19061;BMP280;9663;48.996;8.334;2023-07-31T08:52:48;100015.06;;;28.84
19061;BMP280;9663;48.996;8.334;2023-07-31T08:55:15;100007.63;;;28.80
19061;BMP280;9663;48.996;8.334;2023-07-31T08:57:42;100015.84;;;28.75
19061;BMP280;9663;48.996;8.334;2023-07-31T09:00:10;100015.59;;;28.78
19061;BMP280;9663;48.996;8.334;2023-07-31T09:02:48;100014.00;;;28.86
19061;BMP280;9663;48.996;8.334;2023-07-31T09:05:18;100003.47;;;28.97
19061;BMP280;9663;48.996;8.334;2023-07-31T09:07:49;99992.88;;;29.10
19061;BMP280;9663;48.996;8.334;2023-07-31T09:10:15;99984.53;;;29.16
19061;BMP280;9663;48.996;8.334;2023-07-31T09:12:42;99989.94;;;29.24
19061;BMP280;9663;48.996;8.334;2023-07-31T09:15:08;99983.97;;;29.32
19061;BMP280;9663;48.996;8.334;2023-07-31T09:17:36;99979.78;;;29.50
19061;BMP280;9663;48.996;8.334;2023-07-31T09:20:17;99977.63;;;29.65
19061;BMP280;9663;48.996;8.334;2023-07-31T09:22:44;99967.03;;;29.86
19061;BMP280;9663;48.996;8.334;2023-07-31T09:28:04;99959.59;;;30.01
19061;BMP280;9663;48.996;8.334;2023-07-31T09:30:36;99964.31;;;30.16
19061;BMP280;9663;48.996;8.334;2023-07-31T09:33:09;99969.28;;;30.19
19061;BMP280;9663;48.996;8.334;2023-07-31T09:35:35;99962.81;;;30.23
19061;BMP280;9663;48.996;8.334;2023-07-31T09:38:06;99957.06;;;30.29
19061;BMP280;9663;48.996;8.334;2023-07-31T09:40:35;99965.34;;;30.34
19061;BMP280;9663;48.996;8.334;2023-07-31T09:43:20;99965.84;;;30.28
19061;BMP280;9663;48.996;8.334;2023-07-31T09:45:47;99956.34;;;30.27
19061;BMP280;9663;48.996;8.334;2023-07-31T09:48:16;99943.13;;;30.28
19061;BMP280;9663;48.996;8.334;2023-07-31T09:50:45;99950.03;;;30.29
19061;BMP280;9663;48.996;8.334;2023-07-31T09:53:11;99952.09;;;30.26
19061;BMP280;9663;48.996;8.334;2023-07-31T09:55:39;99948.66;;;30.25
19061;BMP280;9663;48.996;8.334;2023-07-31T09:58:08;99948.34;;;30.28
19061;BMP280;9663;48.996;8.334;2023-07-31T10:00:34;99948.34;;;30.28
19061;BMP280;9663;48.996;8.334;2023-07-31T10:03:04;99943.69;;;30.32
19061;BMP280;9663;48.996;8.334;2023-07-31T10:05:46;99940.50;;;30.28
19061;BMP280;9663;48.996;8.334;2023-07-31T10:08:15;99929.91;;;30.30
19061;BMP280;9663;48.996;8.334;2023-07-31T10:10:45;99924.69;;;30.30
19061;BMP280;9663;48.996;8.334;2023-07-31T10:13:12;99920.59;;;30.37
19061;BMP280;9663;48.996;8.334;2023-07-31T10:15:38;99921.16;;;30.40
19061;BMP280;9663;48.996;8.334;2023-07-31T10:18:06;99931.59;;;30.50
19061;BMP280;9663;48.996;8.334;2023-07-31T10:20:32;99938.34;;;30.61
19061;BMP280;9663;48.996;8.334;2023-07-31T10:22:58;99929.09;;;30.76
19061;BMP280;9663;48.996;8.334;2023-07-31T10:25:26;99947.28;;;30.78
19061;BMP280;9663;48.996;8.334;2023-07-31T10:27:53;99929.38;;;30.64
19061;BMP280;9663;48.996;8.334;2023-07-31T10:30:25;99937.69;;;30.50
19061;BMP280;9663;48.996;8.334;2023-07-31T10:32:52;99935.31;;;30.47
19061;BMP280;9663;48.996;8.334;2023-07-31T10:35:20;99935.47;;;30.46
19061;BMP280;9663;48.996;8.334;2023-07-31T10:37:47;99932.84;;;30.46
19061;BMP280;9663;48.996;8.334;2023-07-31T10:40:27;99925.13;;;30.44
19061;BMP280;9663;48.996;8.334;2023-07-31T10:42:56;99941.78;;;30.43
19061;BMP280;9663;48.996;8.334;2023-07-31T10:45:42;99940.00;;;30.72
19061;BMP280;9663;48.996;8.334;2023-07-31T10:48:15;99934.38;;;30.39
19061;BMP280;9663;48.996;8.334;2023-07-31T10:50:55;99937.94;;;30.38
19061;BMP280;9663;48.996;8.334;2023-07-31T10:53:30;99938.50;;;30.51
19061;BMP280;9663;48.996;8.334;2023-07-31T10:56:05;99930.06;;;30.66
19061;BMP280;9663;48.996;8.334;2023-07-31T10:58:32;99926.63;;;30.84
19061;BMP280;9663;48.996;8.334;2023-07-31T11:01:05;99928.09;;;31.05
19061;BMP280;9663;48.996;8.334;2023-07-31T11:03:47;99924.00;;;31.30
19061;BMP280;9663;48.996;8.334;2023-07-31T11:06:22;99916.94;;;31.49
19061;BMP280;9663;48.996;8.334;2023-07-31T11:08:50;99904.50;;;31.51
19061;BMP280;9663;48.996;8.334;2023-07-31T11:11:18;99915.13;;;31.49
19061;BMP280;9663;48.996;8.334;2023-07-31T11:13:52;99917.63;;;31.42
19061;BMP280;9663;48.996;8.334;2023-07-31T11:16:24;99919.97;;;31.45
19061;BMP280;9663;48.996;8.334;2023-07-31T11:18:52;99929.06;;;31.50
19061;BMP280;9663;48.996;8.334;2023-07-31T11:21:22;99898.16;;;31.53
19061;BMP280;9663;48.996;8.334;2023-07-31T11:23:51;99879.31;;;31.67
19061;BMP280;9663;48.996;8.334;2023-07-31T11:26:19;99880.00;;;31.87
19061;BMP280;9663;48.996;8.334;2023-07-31T11:28:49;99888.47;;;32.07
19061;BMP280;9663;48.996;8.334;2023-07-31T11:31:15;99885.53;;;32.28
19061;BMP280;9663;48.996;8.334;2023-07-31T11:33:40;99883.03;;;32.61
19061;BMP280;9663;48.996;8.334;2023-07-31T11:36:06;99878.41;;;32.80
19061;BMP280;9663;48.996;8.334;2023-07-31T11:38:33;99884.63;;;32.79
19061;BMP280;9663;48.996;8.334;2023-07-31T11:41:03;99887.09;;;32.80
19061;BMP280;9663;48.996;8.334;2023-07-31T11:43:30;99871.34;;;32.80
19061;BMP280;9663;48.996;8.334;2023-07-31T11:45:58;99872.19;;;32.81
19061;BMP280;9663;48.996;8.334;2023-07-31T11:48:28;99874.25;;;32.70
19061;BMP280;9663;48.996;8.334;2023-07-31T11:50:58;99881.19;;;32.78
19061;BMP280;9663;48.996;8.334;2023-07-31T11:53:51;99856.19;;;33.25
19061;BMP280;9663;48.996;8.334;2023-07-31T11:56:19;99860.59;;;33.50
19061;BMP280;9663;48.996;8.334;2023-07-31T11:58:47;99860.19;;;33.37
19061;BMP280;9663;48.996;8.334;2023-07-31T12:01:18;99855.19;;;33.26
19061;BMP280;9663;48.996;8.334;2023-07-31T12:03:47;99844.31;;;33.54
19061;BMP280;9663;48.996;8.334;2023-07-31T12:06:15;99844.47;;;34.41
19061;BMP280;9663;48.996;8.334;2023-07-31T12:08:41;99839.22;;;35.27
19061;BMP280;9663;48.996;8.334;2023-07-31T12:11:11;99827.63;;;35.96
19061;BMP280;9663;48.996;8.334;2023-07-31T12:13:37;99814.84;;;36.80
19061;BMP280;9663;48.996;8.334;2023-07-31T12:16:06;99815.19;;;36.63
19061;BMP280;9663;48.996;8.334;2023-07-31T12:18:38;99808.47;;;36.75
19061;BMP280;9663;48.996;8.334;2023-07-31T12:21:07;99822.66;;;37.31
19061;BMP280;9663;48.996;8.334;2023-07-31T12:23:37;99806.78;;;37.46
19061;BMP280;9663;48.996;8.334;2023-07-31T12:26:15;99805.22;;;37.51
19061;BMP280;9663;48.996;8.334;2023-07-31T12:28:50;99806.78;;;37.31
19061;BMP280;9663;48.996;8.334;2023-07-31T12:31:19;99803.91;;;36.98
19061;BMP280;9663;48.996;8.334;2023-07-31T12:33:49;99799.22;;;36.57
19061;BMP280;9663;48.996;8.334;2023-07-31T12:36:21;99785.06;;;35.99
19061;BMP280;9663;48.996;8.334;2023-07-31T12:38:48;99799.41;;;35.44
19061;BMP280;9663;48.996;8.334;2023-07-31T12:41:14;99822.53;;;34.88
19061;BMP280;9663;48.996;8.334;2023-07-31T12:43:45;99812.25;;;34.39
19061;BMP280;9663;48.996;8.334;2023-07-31T12:46:11;99809.75;;;33.98
19061;BMP280;9663;48.996;8.334;2023-07-31T12:48:38;99811.00;;;33.70
19061;BMP280;9663;48.996;8.334;2023-07-31T12:51:07;99805.56;;;33.48
19061;BMP280;9663;48.996;8.334;2023-07-31T12:53:33;99802.03;;;33.32
19061;BMP280;9663;48.996;8.334;2023-07-31T12:55:59;99803.00;;;33.31
19061;BMP280;9663;48.996;8.334;2023-07-31T12:58:28;99781.34;;;33.37
19061;BMP280;9663;48.996;8.334;2023-07-31T13:01:02;99782.84;;;33.39
19061;BMP280;9663;48.996;8.334;2023-07-31T13:03:30;99779.66;;;33.28
19061;BMP280;9663;48.996;8.334;2023-07-31T13:05:56;99778.13;;;33.10
19061;BMP280;9663;48.996;8.334;2023-07-31T13:08:25;99745.34;;;32.88
19061;BMP280;9663;48.996;8.334;2023-07-31T13:10:51;99779.03;;;32.60
19061;BMP280;9663;48.996;8.334;2023-07-31T13:13:17;99770.44;;;32.33
19061;BMP280;9663;48.996;8.334;2023-07-31T13:15:44;99768.47;;;32.09
19061;BMP280;9663;48.996;8.334;2023-07-31T13:18:10;99756.09;;;31.85
19061;BMP280;9663;48.996;8.334;2023-07-31T13:20:36;99757.28;;;31.73
19061;BMP280;9663;48.996;8.334;2023-07-31T13:23:01;99768.41;;;31.67
19061;BMP280;9663;48.996;8.334;2023-07-31T13:25:27;99754.63;;;31.65
19061;BMP280;9663;48.996;8.334;2023-07-31T13:27:53;99764.97;;;31.66
19061;BMP280;9663;48.996;8.334;2023-07-31T13:30:18;99754.91;;;31.62
19061;BMP280;9663;48.996;8.334;2023-07-31T13:32:45;99757.31;;;31.55
19061;BMP280;9663;48.996;8.334;2023-07-31T13:35:11;99750.72;;;31.51
19061;BMP280;9663;48.996;8.334;2023-07-31T13:37:37;99759.19;;;31.46
19061;BMP280;9663;48.996;8.334;2023-07-31T13:40:03;99754.38;;;31.41
19061;BMP280;9663;48.996;8.334;2023-07-31T13:42:31;99750.53;;;31.36
19061;BMP280;9663;48.996;8.334;2023-07-31T13:44:56;99751.91;;;31.40
19061;BMP280;9663;48.996;8.334;2023-07-31T13:47:22;99740.31;;;31.42
19061;BMP280;9663;48.996;8.334;2023-07-31T13:49:48;99738.22;;;31.46
19061;BMP280;9663;48.996;8.334;2023-07-31T13:52:14;99740.06;;;31.53
19061;BMP280;9663;48.996;8.334;2023-07-31T13:54:40;99742.09;;;31.59
19061;BMP280;9663;48.996;8.334;2023-07-31T13:57:08;99740.00;;;31.62
19061;BMP280;9663;48.996;8.334;2023-07-31T13:59:33;99738.91;;;31.65
19061;BMP280;9663;48.996;8.334;2023-07-31T14:01:59;99718.88;;;31.64
19061;BMP280;9663;48.996;8.334;2023-07-31T14:04:25;99730.94;;;31.57
19061;BMP280;9663;48.996;8.334;2023-07-31T14:06:51;99726.81;;;31.72
19061;BMP280;9663;48.996;8.334;2023-07-31T14:09:17;99735.50;;;31.72
19061;BMP280;9663;48.996;8.334;2023-07-31T14:11:43;99732.09;;;31.28
19061;BMP280;9663;48.996;8.334;2023-07-31T14:14:09;99734.25;;;31.15
19061;BMP280;9663;48.996;8.334;2023-07-31T14:16:35;99751.41;;;31.00
19061;BMP280;9663;48.996;8.334;2023-07-31T14:19:01;99740.31;;;30.89
19061;BMP280;9663;48.996;8.334;2023-07-31T14:21:27;99745.72;;;30.78
19061;BMP280;9663;48.996;8.334;2023-07-31T14:23:53;99748.25;;;30.70